Time;durP1;ratioP1;P1;durP2;ratioP2;P2;SDS_P1;SDS_P2;PMS_P1;PMS_P2;Temp;Humidity;BMP_temperature;BMP_pressure;BME280_temperature;BME280_humidity;BME280_pressure;Samples;Min_cycle;Max_cycle;Signal;HPM_P1;HPM_P2
2023/11/28 00:03:00;;;;;;;;;;;;;;;-0.60;100.00;97293.02;67519;1283;1016661;-69
2023/11/28 00:06:03;;;;;;;;;;;;;;;-0.71;100.00;97293.80;67515;1283;1018930;-69
2023/11/28 00:09:06;;;;;;;;;;;;;;;-0.66;100.00;97293.25;67476;1282;1016385;-69
2023/11/28 00:12:08;;;;;;;;;;;;;;;-0.54;100.00;97289.16;67530;1282;1016899;-69
2023/11/28 00:15:14;;;;;;;;;;;;;;;-0.37;100.00;97291.73;67526;1282;1016459;-69
2023/11/28 00:18:17;;;;;;;;;;;;;;;-0.12;100.00;97290.54;67484;1282;1016357;-69
2023/11/28 00:21:20;;;;;;;;;;;;;;;0.04;100.00;97284.55;67495;1282;1016371;-69
2023/11/28 00:24:23;;;;;;;;;;;;;;;0.15;100.00;97280.30;67488;1282;1016330;-69
2023/11/28 00:27:25;;;;;;;;;;;;;;;0.35;100.00;97276.13;67520;1282;1016423;-68
2023/11/28 00:30:28;;;;;;;;;;;;;;;0.50;100.00;97274.63;67554;1283;1016540;-69
2023/11/28 00:33:30;;;;;;;;;;;;;;;0.57;100.00;97273.45;67496;1283;1016073;-69
2023/11/28 00:36:34;;;;;;;;;;;;;;;0.54;100.00;97271.31;67480;1282;1016259;-68
2023/11/28 00:39:36;;;;;;;;;;;;;;;0.58;100.00;97266.87;67552;1283;1016164;-69
2023/11/28 00:42:39;;;;;;;;;;;;;;;0.41;100.00;97261.23;67491;1283;1019609;-69
2023/11/28 00:45:41;;;;;;;;;;;;;;;0.39;100.00;97254.83;67486;1282;1015925;-69
2023/11/28 00:48:45;;;;;;;;;;;;;;;0.35;100.00;97251.72;67517;1282;1016637;-68
2023/11/28 00:51:47;;;;;;;;;;;;;;;0.28;100.00;97254.42;67491;1283;1015740;-69
2023/11/28 00:54:50;;;;;;;;;;;;;;;0.33;100.00;97255.41;67532;1282;1016599;-69
2023/11/28 00:57:53;;;;;;;;;;;;;;;0.35;100.00;97248.98;67489;1283;1016341;-67
2023/11/28 01:00:55;;;;;;;;;;;;;;;0.50;100.00;97241.91;67502;1283;1016387;-69
2023/11/28 01:03:58;;;;;;;;;;;;;;;0.54;100.00;97243.98;67513;1282;1016439;-69
2023/11/28 01:07:01;;;;;;;;;;;;;;;0.58;100.00;97237.80;67490;1283;1019140;-69
2023/11/28 01:10:03;;;;;;;;;;;;;;;0.43;100.00;97231.56;67514;1282;1016242;-69
2023/11/28 01:13:06;;;;;;;;;;;;;;;0.37;100.00;97228.95;67526;1282;1016455;-69
2023/11/28 01:16:10;;;;;;;;;;;;;;;0.37;100.00;97224.99;67505;1283;1016590;-69
2023/11/28 01:19:12;;;;;;;;;;;;;;;0.29;100.00;97225.14;67526;1283;1016000;-68
2023/11/28 01:22:15;;;;;;;;;;;;;;;0.23;100.00;97221.45;67532;1282;1016226;-69
2023/11/28 01:25:18;;;;;;;;;;;;;;;0.24;100.00;97212.67;67478;1283;1016213;-69
2023/11/28 01:28:20;;;;;;;;;;;;;;;0.40;100.00;97205.60;67500;1282;1016169;-69
2023/11/28 01:31:24;;;;;;;;;;;;;;;0.48;100.00;97195.02;67514;1283;1016186;-69
2023/11/28 01:34:27;;;;;;;;;;;;;;;0.48;100.00;97186.29;67534;1283;1016456;-69
2023/11/28 01:37:29;;;;;;;;;;;;;;;0.39;100.00;97186.52;67503;1282;1016617;-69
2023/11/28 01:40:32;;;;;;;;;;;;;;;0.40;100.00;97180.98;67495;1282;1016940;-69
2023/11/28 01:43:35;;;;;;;;;;;;;;;0.38;100.00;97178.50;67536;1283;1018361;-69
2023/11/28 01:46:39;;;;;;;;;;;;;;;0.32;100.00;97177.04;67482;1282;1016768;-69
2023/11/28 01:49:42;;;;;;;;;;;;;;;0.26;100.00;97168.90;67504;1283;1016265;-70
2023/11/28 01:52:45;;;;;;;;;;;;;;;0.29;100.00;97165.83;67491;1283;1016382;-69
2023/11/28 01:55:47;;;;;;;;;;;;;;;0.27;100.00;97166.96;67510;1283;1018155;-69
2023/11/28 01:58:50;;;;;;;;;;;;;;;0.32;100.00;97170.33;67482;1283;1016768;-69
2023/11/28 02:01:52;;;;;;;;;;;;;;;0.40;100.00;97170.33;67535;1283;1016400;-69
2023/11/28 02:04:55;;;;;;;;;;;;;;;0.36;100.00;97166.05;67520;1283;1015954;-69
2023/11/28 02:07:58;;;;;;;;;;;;;;;0.25;100.00;97157.60;67478;1283;1016485;-69
2023/11/28 02:11:00;;;;;;;;;;;;;;;0.29;100.00;97151.22;67490;1283;1016371;-69
2023/11/28 02:14:03;;;;;;;;;;;;;;;0.30;100.00;97145.14;67537;1282;1017008;-69
2023/11/28 02:17:06;;;;;;;;;;;;;;;0.44;100.00;97143.66;67518;1282;1016331;-68
2023/11/28 02:20:10;;;;;;;;;;;;;;;0.53;100.00;97136.51;67546;1283;1016489;-69
2023/11/28 02:23:13;;;;;;;;;;;;;;;0.61;100.00;97135.83;67515;1283;1016244;-69
2023/11/28 02:26:15;;;;;;;;;;;;;;;0.71;100.00;97132.92;67545;1282;1016110;-69
2023/11/28 02:29:18;;;;;;;;;;;;;;;0.75;100.00;97127.41;67476;1282;1016312;-69
2023/11/28 02:32:20;;;;;;;;;;;;;;;0.76;100.00;97125.46;67500;1281;1016375;-69
2023/11/28 02:35:23;;;;;;;;;;;;;;;0.64;100.00;97124.14;67528;1283;1016425;-69
2023/11/28 02:38:26;;;;;;;;;;;;;;;0.65;100.00;97115.45;67528;1282;1016490;-70
2023/11/28 02:41:28;;;;;;;;;;;;;;;0.70;100.00;97111.13;67489;1282;1016322;-69
2023/11/28 02:44:31;;;;;;;;;;;;;;;0.77;100.00;97110.42;67504;1283;1017825;-69
2023/11/28 02:47:33;;;;;;;;;;;;;;;0.60;100.00;97108.86;67542;1283;1016372;-69
2023/11/28 02:50:37;;;;;;;;;;;;;;;0.43;100.00;97109.30;67531;1283;1016349;-69
2023/11/28 02:53:40;;;;;;;;;;;;;;;0.44;100.00;97102.55;67528;1280;1016500;-68
2023/11/28 02:56:42;;;;;;;;;;;;;;;0.41;100.00;97094.44;67511;1283;1016886;-69
2023/11/28 02:59:45;;;;;;;;;;;;;;;0.48;100.00;97088.26;67480;1282;1016519;-69
2023/11/28 03:02:47;;;;;;;;;;;;;;;0.51;100.00;97084.34;67533;1282;1017251;-69
2023/11/28 03:05:50;;;;;;;;;;;;;;;0.57;100.00;97075.27;67545;1283;1016374;-69
2023/11/28 03:08:52;;;;;;;;;;;;;;;0.56;100.00;97068.44;67506;1283;1016585;-69
2023/11/28 03:11:55;;;;;;;;;;;;;;;0.67;100.00;97060.13;67517;1283;1016165;-67
2023/11/28 03:14:58;;;;;;;;;;;;;;;0.64;100.00;97059.80;67519;1283;1016409;-69
2023/11/28 03:18:00;;;;;;;;;;;;;;;0.64;100.00;97056.85;67546;1283;1016326;-69
2023/11/28 03:21:05;;;;;;;;;;;;;;;0.60;100.00;97052.44;65372;1282;5382116;-69
2023/11/28 03:24:16;;;;;;;;;;;;;;;0.49;100.00;97047.98;67528;1283;1016276;-69
2023/11/28 03:27:20;;;;;;;;;;;;;;;0.43;100.00;97042.23;67527;1282;1016459;-69
2023/11/28 03:30:24;;;;;;;;;;;;;;;0.42;100.00;97037.78;67523;1282;1016452;-69
2023/11/28 03:33:27;;;;;;;;;;;;;;;0.44;100.00;97033.78;67509;1282;1016472;-69
2023/11/28 03:36:30;;;;;;;;;;;;;;;0.45;100.00;97035.95;67499;1283;1016086;-70
2023/11/28 03:39:32;;;;;;;;;;;;;;;0.47;100.00;97035.16;67525;1283;1016482;-69
2023/11/28 03:42:35;;;;;;;;;;;;;;;0.55;100.00;97027.55;67539;1283;1016696;-69
2023/11/28 03:45:37;;;;;;;;;;;;;;;0.47;100.00;97028.09;67559;1283;1016816;-67
2023/11/28 03:48:40;;;;;;;;;;;;;;;0.47;100.00;97020.70;67505;1282;1016388;-70
2023/11/28 03:51:42;;;;;;;;;;;;;;;0.52;100.00;97012.40;67530;1283;1016359;-69
2023/11/28 03:54:45;;;;;;;;;;;;;;;0.59;100.00;97003.41;67519;1283;1017170;-69
2023/11/28 03:57:48;;;;;;;;;;;;;;;0.55;100.00;96999.02;67524;1282;1016327;-69
2023/11/28 04:00:50;;;;;;;;;;;;;;;0.64;100.00;96989.46;67508;1283;1016419;-69
2023/11/28 04:03:55;;;;;;;;;;;;;;;0.76;100.00;96984.02;67522;1283;1018001;-69
2023/11/28 04:06:57;;;;;;;;;;;;;;;0.67;100.00;96975.35;67533;1283;1016098;-69
2023/11/28 04:10:00;;;;;;;;;;;;;;;0.73;100.00;96967.31;67509;1283;1018380;-69
2023/11/28 04:13:03;;;;;;;;;;;;;;;0.69;100.00;96964.55;67537;1283;1016476;-69
2023/11/28 04:16:05;;;;;;;;;;;;;;;0.70;100.00;96965.05;67567;1283;1016037;-69
2023/11/28 04:19:08;;;;;;;;;;;;;;;0.78;100.00;96958.09;67537;1283;1016502;-69
2023/11/28 04:22:11;;;;;;;;;;;;;;;0.66;100.00;96950.63;67518;1283;1016370;-69
2023/11/28 04:25:13;;;;;;;;;;;;;;;0.78;100.00;96943.96;67535;1283;1016913;-69
2023/11/28 04:28:16;;;;;;;;;;;;;;;0.84;100.00;96935.08;67521;1283;1016344;-69
2023/11/28 04:31:24;;;;;;;;;;;;;;;0.86;100.00;96932.91;67556;1283;1016194;-68
2023/11/28 04:34:26;;;;;;;;;;;;;;;0.76;100.00;96930.84;67513;1282;1016603;-69
2023/11/28 04:37:29;;;;;;;;;;;;;;;0.79;100.00;96925.86;67518;1282;1016457;-69
2023/11/28 04:40:31;;;;;;;;;;;;;;;0.74;100.00;96923.36;67510;1283;1016370;-69
2023/11/28 04:43:34;;;;;;;;;;;;;;;0.75;100.00;96921.75;67538;1283;1016380;-69
2023/11/28 04:46:36;;;;;;;;;;;;;;;0.81;100.00;96915.61;67521;1282;1015773;-67
2023/11/28 04:49:39;;;;;;;;;;;;;;;0.79;100.00;96911.22;67521;1283;1016031;-69
2023/11/28 04:52:42;;;;;;;;;;;;;;;0.90;100.00;96912.04;67528;1283;1016405;-69
2023/11/28 04:55:44;;;;;;;;;;;;;;;0.98;100.00;96906.64;67526;1283;1016910;-70
2023/11/28 04:58:48;;;;;;;;;;;;;;;1.03;100.00;96902.79;67552;1282;1016447;-68
2023/11/28 05:01:50;;;;;;;;;;;;;;;1.15;100.00;96896.46;67483;1283;1016362;-69
2023/11/28 05:04:53;;;;;;;;;;;;;;;1.05;100.00;96892.52;67517;1283;1016424;-69
2023/11/28 05:07:56;;;;;;;;;;;;;;;1.11;100.00;96888.09;67576;1282;1017754;-69
2023/11/28 05:11:04;;;;;;;;;;;;;;;1.21;100.00;96882.20;67551;1282;1016451;-69
2023/11/28 05:14:06;;;;;;;;;;;;;;;1.29;100.00;96879.14;67568;1283;1016568;-69
2023/11/28 05:17:09;;;;;;;;;;;;;;;1.41;100.00;96877.98;67485;1283;1016219;-69
2023/11/28 05:20:12;;;;;;;;;;;;;;;1.30;100.00;96879.48;67551;1283;1016245;-69
2023/11/28 05:23:14;;;;;;;;;;;;;;;1.22;100.00;96884.19;67543;1283;1017563;-68
2023/11/28 05:26:17;;;;;;;;;;;;;;;1.35;100.00;96882.25;67497;1283;1016466;-69
2023/11/28 05:29:20;;;;;;;;;;;;;;;1.42;100.00;96879.67;67563;1283;1016256;-69
2023/11/28 05:32:22;;;;;;;;;;;;;;;1.50;100.00;96877.17;67548;1283;1016365;-67
2023/11/28 05:35:25;;;;;;;;;;;;;;;1.65;100.00;96875.33;67504;1283;1016482;-69
2023/11/28 05:38:27;;;;;;;;;;;;;;;1.67;100.00;96873.63;67510;1282;1016297;-69
2023/11/28 05:41:30;;;;;;;;;;;;;;;1.58;100.00;96873.98;67561;1282;1018271;-69
2023/11/28 05:44:33;;;;;;;;;;;;;;;1.52;100.00;96869.11;67536;1283;1016253;-69
2023/11/28 05:47:35;;;;;;;;;;;;;;;1.49;100.00;96869.10;67527;1282;1018114;-69
2023/11/28 05:50:38;;;;;;;;;;;;;;;1.53;100.00;96868.01;67513;1283;1016433;-69
2023/11/28 05:53:40;;;;;;;;;;;;;;;1.44;100.00;96862.16;67558;1283;1016138;-68
2023/11/28 05:56:43;;;;;;;;;;;;;;;1.37;100.00;96859.07;67569;1283;1016457;-68
2023/11/28 05:59:46;;;;;;;;;;;;;;;1.43;100.00;96857.04;67507;1282;1016047;-68
2023/11/28 06:02:49;;;;;;;;;;;;;;;1.41;100.00;96854.22;67552;1283;1016453;-68
2023/11/28 06:05:51;;;;;;;;;;;;;;;1.30;100.00;96856.19;67520;1283;1016261;-68
2023/11/28 06:08:54;;;;;;;;;;;;;;;1.30;100.00;96854.29;67545;1283;1016303;-68
2023/11/28 06:11:57;;;;;;;;;;;;;;;1.28;100.00;96854.23;67568;1283;1016438;-69
2023/11/28 06:15:00;;;;;;;;;;;;;;;1.31;100.00;96850.66;67546;1283;1016464;-69
2023/11/28 06:18:03;;;;;;;;;;;;;;;1.26;100.00;96847.46;67514;1283;1018243;-68
2023/11/28 06:21:05;;;;;;;;;;;;;;;1.24;100.00;96845.16;67574;1282;1015958;-69
2023/11/28 06:24:10;;;;;;;;;;;;;;;1.20;100.00;96844.84;67480;1283;1016270;-68
2023/11/28 06:27:13;;;;;;;;;;;;;;;1.15;100.00;96844.45;67556;1283;1020289;-69
2023/11/28 06:30:16;;;;;;;;;;;;;;;1.13;100.00;96844.93;67562;1283;1016706;-68
2023/11/28 06:33:18;;;;;;;;;;;;;;;1.03;100.00;96847.31;67513;1282;1016447;-67
2023/11/28 06:36:21;;;;;;;;;;;;;;;0.87;100.00;96846.62;67569;1283;1016418;-68
2023/11/28 06:39:24;;;;;;;;;;;;;;;1.00;100.00;96841.80;67549;1283;1016984;-68
2023/11/28 06:42:27;;;;;;;;;;;;;;;0.97;100.00;96840.27;67534;1283;1015725;-68
2023/11/28 06:45:31;;;;;;;;;;;;;;;1.11;100.00;96838.13;67574;1283;1016676;-68
2023/11/28 06:48:34;;;;;;;;;;;;;;;1.15;100.00;96836.52;67570;1283;1016470;-68
2023/11/28 06:51:36;;;;;;;;;;;;;;;1.13;100.00;96834.38;67549;1283;1016313;-68
2023/11/28 06:54:39;;;;;;;;;;;;;;;1.22;100.00;96839.77;67536;1283;1016508;-69
2023/11/28 06:57:42;;;;;;;;;;;;;;;1.20;100.00;96837.64;67573;1283;1016924;-69
2023/11/28 07:00:44;;;;;;;;;;;;;;;1.19;100.00;96833.39;67572;1283;1016487;-69
2023/11/28 07:03:47;;;;;;;;;;;;;;;1.16;100.00;96824.27;67525;1283;1016301;-70
2023/11/28 07:06:49;;;;;;;;;;;;;;;1.12;100.00;96824.30;67529;1283;1016441;-69
2023/11/28 07:09:52;;;;;;;;;;;;;;;1.15;100.00;96820.69;67567;1282;1016350;-69
2023/11/28 07:12:55;;;;;;;;;;;;;;;1.23;100.00;96821.32;67597;1283;1020058;-69
2023/11/28 07:15:57;;;;;;;;;;;;;;;1.15;100.00;96819.14;67547;1283;1016501;-69
2023/11/28 07:19:00;;;;;;;;;;;;;;;1.00;100.00;96817.54;67532;1283;1016434;-67
2023/11/28 07:22:03;;;;;;;;;;;;;;;1.08;100.00;96816.64;67570;1283;1016383;-69
2023/11/28 07:25:05;;;;;;;;;;;;;;;1.22;100.00;96811.52;67539;1283;1016159;-69
2023/11/28 07:28:08;;;;;;;;;;;;;;;1.40;100.00;96807.62;67520;1283;1016301;-69
2023/11/28 07:31:10;;;;;;;;;;;;;;;1.30;100.00;96804.73;67575;1282;1016490;-69
2023/11/28 07:34:13;;;;;;;;;;;;;;;1.46;100.00;96808.84;67588;1283;1019801;-69
2023/11/28 07:37:15;;;;;;;;;;;;;;;1.54;100.00;96804.40;67550;1283;1016186;-69
2023/11/28 07:40:18;;;;;;;;;;;;;;;1.64;100.00;96807.62;67508;1283;1016881;-69
2023/11/28 07:43:21;;;;;;;;;;;;;;;1.66;100.00;96809.27;67601;1283;1016476;-69
2023/11/28 07:46:23;;;;;;;;;;;;;;;1.59;100.00;96807.39;67550;1283;1016193;-69
2023/11/28 07:49:26;;;;;;;;;;;;;;;1.74;100.00;96811.20;67528;1283;1016399;-69
2023/11/28 07:52:29;;;;;;;;;;;;;;;1.61;100.00;96811.08;67591;1283;1017602;-69
2023/11/28 07:55:31;;;;;;;;;;;;;;;1.61;100.00;96813.86;67578;1283;1016454;-69
2023/11/28 07:58:34;;;;;;;;;;;;;;;1.64;100.00;96815.55;67548;1283;1016505;-69
2023/11/28 08:01:36;;;;;;;;;;;;;;;1.66;100.00;96810.60;67560;1283;1016516;-69
2023/11/28 08:04:39;;;;;;;;;;;;;;;1.60;100.00;96812.67;67560;1283;1016387;-69
2023/11/28 08:07:42;;;;;;;;;;;;;;;1.75;100.00;96810.78;67581;1283;1016474;-69
2023/11/28 08:10:44;;;;;;;;;;;;;;;1.84;100.00;96812.36;67528;1283;1017214;-69
2023/11/28 08:13:47;;;;;;;;;;;;;;;1.91;100.00;96814.52;67528;1283;1016528;-69
2023/11/28 08:16:49;;;;;;;;;;;;;;;1.86;100.00;96814.15;67555;1283;1016427;-69
2023/11/28 08:19:52;;;;;;;;;;;;;;;1.83;100.00;96814.64;67556;1283;1018184;-69
2023/11/28 08:22:55;;;;;;;;;;;;;;;2.00;100.00;96811.25;67541;1283;1016565;-69
2023/11/28 08:25:57;;;;;;;;;;;;;;;2.11;100.00;96811.33;67576;1283;1016436;-69
2023/11/28 08:29:00;;;;;;;;;;;;;;;2.08;100.00;96804.77;67537;1283;1016473;-69
2023/11/28 08:32:02;;;;;;;;;;;;;;;2.10;100.00;96805.50;67571;1283;1016253;-69
2023/11/28 08:35:05;;;;;;;;;;;;;;;2.22;100.00;96806.52;67524;1283;1019465;-69
2023/11/28 08:38:08;;;;;;;;;;;;;;;2.41;100.00;96806.60;67528;1283;1016456;-69
2023/11/28 08:41:10;;;;;;;;;;;;;;;2.43;100.00;96804.25;67565;1283;1016369;-69
2023/11/28 08:44:13;;;;;;;;;;;;;;;2.60;100.00;96803.20;67578;1283;1016988;-68
2023/11/28 08:47:16;;;;;;;;;;;;;;;2.64;100.00;96794.70;67536;1283;1016536;-68
2023/11/28 08:50:18;;;;;;;;;;;;;;;2.74;100.00;96789.75;67599;1282;1016069;-69
2023/11/28 08:53:21;;;;;;;;;;;;;;;2.67;100.00;96789.18;67570;1283;1016613;-69
2023/11/28 08:56:23;;;;;;;;;;;;;;;2.65;100.00;96785.98;67515;1283;1016391;-69
2023/11/28 08:59:26;;;;;;;;;;;;;;;2.90;100.00;96781.89;67536;1283;1015962;-69
2023/11/28 09:02:29;;;;;;;;;;;;;;;3.05;100.00;96778.87;67548;1283;1016238;-69
2023/11/28 09:05:31;;;;;;;;;;;;;;;3.00;100.00;96776.93;67515;1283;1018338;-69
2023/11/28 09:08:34;;;;;;;;;;;;;;;2.97;100.00;96773.31;67532;1283;1016147;-68
2023/11/28 09:11:36;;;;;;;;;;;;;;;2.86;100.00;96778.33;67587;1283;1016217;-68
2023/11/28 09:14:39;;;;;;;;;;;;;;;3.03;100.00;96767.58;67540;1283;1016246;-69
2023/11/28 09:17:42;;;;;;;;;;;;;;;3.10;100.00;96763.48;67542;1283;1016206;-68
2023/11/28 09:20:44;;;;;;;;;;;;;;;3.16;100.00;96760.20;67559;1283;1016550;-69
2023/11/28 09:23:47;;;;;;;;;;;;;;;3.24;100.00;96762.63;67571;1283;1016253;-69
2023/11/28 09:26:49;;;;;;;;;;;;;;;3.17;100.00;96760.52;67559;1283;1016522;-69
2023/11/28 09:29:52;;;;;;;;;;;;;;;3.18;100.00;96758.04;67524;1283;1016565;-69
2023/11/28 09:32:55;;;;;;;;;;;;;;;3.33;100.00;96757.91;67565;1282;1016410;-68
2023/11/28 09:35:57;;;;;;;;;;;;;;;3.36;100.00;96762.06;67579;1283;1016027;-68
2023/11/28 09:39:03;;;;;;;;;;;;;;;3.31;100.00;96758.88;67540;1283;1016612;-69
2023/11/28 09:42:06;;;;;;;;;;;;;;;3.37;100.00;96756.59;67536;1283;1016522;-69
2023/11/28 09:45:12;;;;;;;;;;;;;;;3.47;100.00;96755.48;67585;1283;1016221;-69
2023/11/28 09:48:15;;;;;;;;;;;;;;;3.47;100.00;96748.86;67565;1283;1016655;-69
2023/11/28 09:51:17;;;;;;;;;;;;;;;3.58;100.00;96744.39;67588;1283;1016541;-69
2023/11/28 09:54:20;;;;;;;;;;;;;;;3.56;100.00;96737.58;67525;1283;1016361;-69
2023/11/28 09:57:23;;;;;;;;;;;;;;;3.65;100.00;96739.58;67579;1283;1016468;-69
2023/11/28 10:00:25;;;;;;;;;;;;;;;3.52;100.00;96731.07;67572;1283;1016525;-69
2023/11/28 10:03:28;;;;;;;;;;;;;;;3.57;100.00;96729.42;67526;1283;1016382;-69
2023/11/28 10:06:31;;;;;;;;;;;;;;;3.53;100.00;96723.65;67559;1283;1016100;-69
2023/11/28 10:09:33;;;;;;;;;;;;;;;3.58;100.00;96721.73;67582;1283;1015915;-68
2023/11/28 10:12:37;;;;;;;;;;;;;;;3.57;100.00;96721.11;67527;1283;1016709;-69
2023/11/28 10:15:42;;;;;;;;;;;;;;;3.53;100.00;96713.23;67539;1283;1016413;-69
2023/11/28 10:18:45;;;;;;;;;;;;;;;3.55;100.00;96708.80;67521;1283;1016220;-68
2023/11/28 10:21:48;;;;;;;;;;;;;;;3.63;100.00;96702.06;67555;1283;1016406;-69
2023/11/28 10:24:55;;;;;;;;;;;;;;;3.73;100.00;96699.61;67559;1283;1016443;-69
2023/11/28 10:28:01;;;;;;;;;;;;;;;3.83;100.00;96699.48;67561;1283;1016186;-69
2023/11/28 10:31:06;;;;;;;;;;;;;;;3.84;100.00;96700.34;67518;1283;1016095;-69
2023/11/28 10:34:09;;;;;;;;;;;;;;;3.71;100.00;96703.04;67514;1283;1016484;-69
2023/11/28 10:37:12;;;;;;;;;;;;;;;3.64;100.00;96697.50;67529;1283;1016462;-69
2023/11/28 10:40:17;;;;;;;;;;;;;;;3.60;100.00;96696.90;67544;1283;1016391;-69
2023/11/28 10:43:19;;;;;;;;;;;;;;;3.54;100.00;96692.65;67550;1283;1016527;-69
2023/11/28 10:46:22;;;;;;;;;;;;;;;3.37;100.00;96693.03;67508;1283;1017140;-69
2023/11/28 10:49:25;;;;;;;;;;;;;;;3.19;100.00;96690.05;67521;1283;1017564;-69
2023/11/28 10:52:28;;;;;;;;;;;;;;;3.26;100.00;96691.69;67529;1283;1016309;-69
2023/11/28 10:55:30;;;;;;;;;;;;;;;3.13;100.00;96687.65;67513;1283;1016524;-69
2023/11/28 10:58:33;;;;;;;;;;;;;;;3.18;100.00;96686.67;67530;1283;1016996;-68
2023/11/28 11:01:35;;;;;;;;;;;;;;;3.21;100.00;96685.98;67570;1283;1019335;-68
2023/11/28 11:04:38;;;;;;;;;;;;;;;3.23;100.00;96680.66;67517;1283;1016873;-69
2023/11/28 11:07:41;;;;;;;;;;;;;;;3.18;100.00;96677.18;67544;1283;1016340;-69
2023/11/28 11:10:44;;;;;;;;;;;;;;;3.27;100.00;96677.06;67513;1283;1016608;-69
2023/11/28 11:13:48;;;;;;;;;;;;;;;3.34;100.00;96680.98;67529;1283;1016485;-69
2023/11/28 11:16:51;;;;;;;;;;;;;;;3.26;100.00;96678.71;67536;1283;1018646;-69
2023/11/28 11:19:54;;;;;;;;;;;;;;;3.18;100.00;96679.04;67552;1283;1016527;-68
2023/11/28 11:22:56;;;;;;;;;;;;;;;2.96;100.00;96676.66;67523;1283;1017063;-69
2023/11/28 11:26:03;;;;;;;;;;;;;;;2.87;100.00;96673.83;67510;1283;1015687;-69
2023/11/28 11:29:06;;;;;;;;;;;;;;;2.89;100.00;96675.94;67531;1283;1017324;-69
2023/11/28 11:32:09;;;;;;;;;;;;;;;2.99;100.00;96674.27;67520;1283;1016344;-69
2023/11/28 11:35:13;;;;;;;;;;;;;;;2.94;100.00;96670.10;67575;1282;1016157;-69
2023/11/28 11:38:16;;;;;;;;;;;;;;;3.00;100.00;96668.54;67529;1283;1016397;-69
2023/11/28 11:41:18;;;;;;;;;;;;;;;3.12;100.00;96670.83;67522;1283;1016121;-69
2023/11/28 11:44:21;;;;;;;;;;;;;;;3.19;100.00;96667.58;67563;1283;1016501;-69
2023/11/28 11:47:23;;;;;;;;;;;;;;;3.22;100.00;96668.98;67544;1283;1016186;-68
2023/11/28 11:50:26;;;;;;;;;;;;;;;3.27;100.00;96670.55;67532;1283;1016868;-69
2023/11/28 11:53:29;;;;;;;;;;;;;;;3.19;100.00;96666.44;67549;1283;1016621;-69
2023/11/28 11:56:32;;;;;;;;;;;;;;;3.09;100.00;96670.16;67511;1283;1016597;-68
2023/11/28 11:59:35;;;;;;;;;;;;;;;3.05;100.00;96667.83;67530;1283;1016347;-69
2023/11/28 12:02:37;;;;;;;;;;;;;;;3.06;100.00;96671.90;67536;1283;1016406;-69
2023/11/28 12:05:40;;;;;;;;;;;;;;;3.01;100.00;96670.87;67527;1283;1016371;-68
2023/11/28 12:08:43;;;;;;;;;;;;;;;3.02;100.00;96670.06;67515;1283;1016486;-69
2023/11/28 12:11:45;;;;;;;;;;;;;;;3.06;100.00;96667.39;67545;1283;1016351;-69
2023/11/28 12:14:48;;;;;;;;;;;;;;;3.07;100.00;96667.66;67544;1283;1016427;-69
2023/11/28 12:17:52;;;;;;;;;;;;;;;3.16;100.00;96667.14;67528;1283;1016499;-68
2023/11/28 12:20:55;;;;;;;;;;;;;;;3.16;100.00;96666.42;67521;1283;1018385;-69
2023/11/28 12:23:57;;;;;;;;;;;;;;;3.14;100.00;96666.05;67546;1283;1016347;-69
2023/11/28 12:27:00;;;;;;;;;;;;;;;3.17;100.00;96667.92;67551;1282;1016082;-67
2023/11/28 12:30:02;;;;;;;;;;;;;;;3.07;100.00;96672.67;67520;1283;1018905;-69
2023/11/28 12:33:05;;;;;;;;;;;;;;;3.05;100.00;96680.27;67531;1283;1016435;-69
2023/11/28 12:36:08;;;;;;;;;;;;;;;3.11;100.00;96678.86;67534;1283;1016500;-69
2023/11/28 12:39:12;;;;;;;;;;;;;;;3.13;100.00;96674.91;67524;1283;1018946;-67
2023/11/28 12:42:16;;;;;;;;;;;;;;;3.14;100.00;96675.91;67518;1283;1018931;-69
2023/11/28 12:45:19;;;;;;;;;;;;;;;3.12;100.00;96682.59;67500;1283;1016514;-69
2023/11/28 12:48:21;;;;;;;;;;;;;;;3.11;100.00;96682.32;67560;1283;1016437;-69
2023/11/28 12:51:24;;;;;;;;;;;;;;;3.03;100.00;96685.03;67545;1283;1016127;-69
2023/11/28 12:54:27;;;;;;;;;;;;;;;2.96;100.00;96689.48;67505;1283;1016457;-69
2023/11/28 12:57:29;;;;;;;;;;;;;;;2.86;100.00;96692.88;67532;1283;1016120;-69
2023/11/28 13:00:32;;;;;;;;;;;;;;;2.79;100.00;96702.27;67528;1283;1016416;-68
2023/11/28 13:03:36;;;;;;;;;;;;;;;2.72;100.00;96701.50;67536;1283;1016530;-69
2023/11/28 13:06:39;;;;;;;;;;;;;;;2.81;100.00;96698.86;67503;1282;1016338;-69
2023/11/28 13:09:41;;;;;;;;;;;;;;;2.79;100.00;96704.33;67497;1283;1016133;-69
2023/11/28 13:12:44;;;;;;;;;;;;;;;2.79;100.00;96701.11;67526;1283;1016409;-69
2023/11/28 13:15:47;;;;;;;;;;;;;;;2.78;100.00;96705.14;67504;1283;1016534;-68
2023/11/28 13:18:49;;;;;;;;;;;;;;;2.75;100.00;96708.08;67498;1283;1016146;-68
2023/11/28 13:21:53;;;;;;;;;;;;;;;2.68;100.00;96712.96;67572;1283;1016331;-69
2023/11/28 13:24:56;;;;;;;;;;;;;;;2.62;100.00;96714.43;67519;1282;1018358;-67
2023/11/28 13:27:59;;;;;;;;;;;;;;;2.63;100.00;96714.66;67548;1283;1016225;-69
2023/11/28 13:31:05;;;;;;;;;;;;;;;2.64;100.00;96714.61;67495;1282;1017379;-68
2023/11/28 13:34:14;;;;;;;;;;;;;;;2.68;100.00;96720.40;67519;1283;1016441;-69
2023/11/28 13:37:18;;;;;;;;;;;;;;;2.63;100.00;96721.04;67537;1283;1016108;-69
2023/11/28 13:40:21;;;;;;;;;;;;;;;2.51;100.00;96722.50;67546;1283;1016122;-69
2023/11/28 13:43:25;;;;;;;;;;;;;;;2.44;100.00;96717.38;67545;1283;1016438;-67
2023/11/28 13:46:28;;;;;;;;;;;;;;;2.46;100.00;96725.40;67491;1283;1016380;-68
2023/11/28 13:49:30;;;;;;;;;;;;;;;2.63;100.00;96728.35;67532;1283;1016002;-69
2023/11/28 13:52:33;;;;;;;;;;;;;;;2.58;100.00;96728.42;67513;1283;1016505;-69
2023/11/28 13:55:37;;;;;;;;;;;;;;;2.49;100.00;96729.20;67503;1283;1016491;-69
2023/11/28 13:58:40;;;;;;;;;;;;;;;2.50;100.00;96734.27;67533;1283;1018631;-69
2023/11/28 14:01:43;;;;;;;;;;;;;;;2.51;100.00;96737.69;67544;1283;1016004;-69
2023/11/28 14:04:45;;;;;;;;;;;;;;;2.54;100.00;96737.13;67540;1283;1016408;-69
2023/11/28 14:07:48;;;;;;;;;;;;;;;2.46;100.00;96743.30;67490;1283;1018134;-68
2023/11/28 14:10:51;;;;;;;;;;;;;;;2.39;100.00;96743.23;67515;1283;1016496;-69
2023/11/28 14:13:54;;;;;;;;;;;;;;;2.33;100.00;96751.20;67513;1283;1016488;-68
2023/11/28 14:16:56;;;;;;;;;;;;;;;2.12;100.00;96749.35;67514;1282;1016409;-68
2023/11/28 14:19:59;;;;;;;;;;;;;;;2.03;100.00;96748.35;67539;1282;1016422;-69
2023/11/28 14:23:06;;;;;;;;;;;;;;;1.95;100.00;96752.43;67489;1283;1017806;-70
2023/11/28 14:26:09;;;;;;;;;;;;;;;1.91;100.00;96761.42;67545;1283;1016565;-68
2023/11/28 14:29:12;;;;;;;;;;;;;;;1.93;100.00;96765.14;67504;1282;1016498;-68
2023/11/28 14:32:14;;;;;;;;;;;;;;;1.80;100.00;96771.38;67494;1282;1016487;-67
2023/11/28 14:35:17;;;;;;;;;;;;;;;1.82;100.00;96774.55;67512;1282;1016515;-69
2023/11/28 14:38:20;;;;;;;;;;;;;;;1.81;100.00;96779.25;67507;1283;1016407;-69
2023/11/28 14:41:23;;;;;;;;;;;;;;;1.74;100.00;96781.56;67489;1282;1016120;-67
2023/11/28 14:44:25;;;;;;;;;;;;;;;1.66;100.00;96780.45;67517;1283;1016125;-68
2023/11/28 14:47:28;;;;;;;;;;;;;;;1.53;100.00;96785.36;67483;1283;1016488;-68
2023/11/28 14:50:31;;;;;;;;;;;;;;;1.48;100.00;96790.82;67511;1282;1016103;-69
2023/11/28 14:53:34;;;;;;;;;;;;;;;1.54;100.00;96794.91;67501;1282;1016315;-69
2023/11/28 14:56:39;;;;;;;;;;;;;;;1.54;100.00;96803.55;67481;1283;1016235;-67
2023/11/28 14:59:41;;;;;;;;;;;;;;;1.66;100.00;96804.25;67537;1283;1016227;-69
2023/11/28 15:02:44;;;;;;;;;;;;;;;1.55;100.00;96808.68;67480;1283;1016439;-69
2023/11/28 15:05:47;;;;;;;;;;;;;;;1.50;100.00;96807.71;67486;1283;1016417;-69
2023/11/28 15:08:50;;;;;;;;;;;;;;;1.51;100.00;96809.40;67501;1283;1016065;-69
2023/11/28 15:11:53;;;;;;;;;;;;;;;1.52;100.00;96818.45;67500;1283;1016380;-69
2023/11/28 15:14:56;;;;;;;;;;;;;;;1.47;100.00;96819.64;67487;1283;1016493;-69
2023/11/28 15:17:59;;;;;;;;;;;;;;;1.48;100.00;96827.48;67471;1283;1016018;-69
2023/11/28 15:21:02;;;;;;;;;;;;;;;1.43;100.00;96835.37;64979;1282;5384129;-70
2023/11/28 15:24:05;;;;;;;;;;;;;;;1.49;100.00;96837.41;67500;1282;1016442;-69
2023/11/28 15:27:08;;;;;;;;;;;;;;;1.49;100.00;96836.90;67492;1282;1016326;-69